sensor_id;sensor_type;location;lat;lon;timestamp;P1;durP1;ratioP1;P2;durP2;ratioP2
81894;SDS011;71358;45.642;13.758;2024-01-30T00:32:44;9.43;;;8.52;;
81894;SDS011;71358;45.642;13.758;2024-01-30T00:35:29;10.32;;;9.38;;
81894;SDS011;71358;45.642;13.758;2024-01-30T00:38:13;10.93;;;9.15;;
81894;SDS011;71358;45.642;13.758;2024-01-30T00:40:58;10.50;;;9.15;;
81894;SDS011;71358;45.642;13.758;2024-01-30T00:43:43;10.43;;;9.43;;
81894;SDS011;71358;45.642;13.758;2024-01-30T00:46:27;9.27;;;8.38;;
81894;SDS011;71358;45.642;13.758;2024-01-30T00:49:12;10.20;;;9.15;;
81894;SDS011;71358;45.642;13.758;2024-01-30T00:51:56;9.45;;;8.55;;
81894;SDS011;71358;45.642;13.758;2024-01-30T00:54:41;8.70;;;7.90;;
81894;SDS011;71358;45.642;13.758;2024-01-30T00:57:25;9.23;;;8.32;;
81894;SDS011;71358;45.642;13.758;2024-01-30T01:00:11;9.90;;;9.00;;
81894;SDS011;71358;45.642;13.758;2024-01-30T01:02:56;8.55;;;7.88;;
81894;SDS011;71358;45.642;13.758;2024-01-30T01:05:40;9.80;;;8.93;;
81894;SDS011;71358;45.642;13.758;2024-01-30T01:08:25;8.98;;;8.18;;
81894;SDS011;71358;45.642;13.758;2024-01-30T01:11:09;8.27;;;7.57;;
81894;SDS011;71358;45.642;13.758;2024-01-30T01:13:54;9.55;;;8.65;;
81894;SDS011;71358;45.642;13.758;2024-01-30T01:16:39;9.15;;;8.35;;
81894;SDS011;71358;45.642;13.758;2024-01-30T01:19:23;9.43;;;8.52;;
81894;SDS011;71358;45.642;13.758;2024-01-30T01:22:08;9.43;;;8.63;;
81894;SDS011;71358;45.642;13.758;2024-01-30T01:24:53;8.77;;;7.88;;
81894;SDS011;71358;45.642;13.758;2024-01-30T01:27:37;9.60;;;8.70;;
81894;SDS011;71358;45.642;13.758;2024-01-30T01:30:24;9.95;;;8.82;;
81894;SDS011;71358;45.642;13.758;2024-01-30T01:33:09;8.85;;;8.05;;
81894;SDS011;71358;45.642;13.758;2024-01-30T01:35:54;9.63;;;8.63;;
81894;SDS011;71358;45.642;13.758;2024-01-30T01:38:38;9.38;;;8.43;;
81894;SDS011;71358;45.642;13.758;2024-01-30T01:41:23;9.20;;;8.32;;
81894;SDS011;71358;45.642;13.758;2024-01-30T01:44:08;9.75;;;8.85;;
81894;SDS011;71358;45.642;13.758;2024-01-30T01:46:52;9.05;;;8.15;;
81894;SDS011;71358;45.642;13.758;2024-01-30T01:49:38;9.32;;;8.43;;
81894;SDS011;71358;45.642;13.758;2024-01-30T01:52:23;9.38;;;8.48;;
81894;SDS011;71358;45.642;13.758;2024-01-30T01:55:08;9.65;;;8.80;;
81894;SDS011;71358;45.642;13.758;2024-01-30T01:57:55;8.60;;;7.80;;
81894;SDS011;71358;45.642;13.758;2024-01-30T02:00:40;9.30;;;8.40;;
81894;SDS011;71358;45.642;13.758;2024-01-30T02:03:25;8.25;;;7.55;;
81894;SDS011;71358;45.642;13.758;2024-01-30T02:06:10;10.77;;;9.05;;
81894;SDS011;71358;45.642;13.758;2024-01-30T02:08:54;8.10;;;7.40;;
81894;SDS011;71358;45.642;13.758;2024-01-30T02:11:39;9.43;;;8.57;;
81894;SDS011;71358;45.642;13.758;2024-01-30T02:14:24;9.25;;;8.45;;
81894;SDS011;71358;45.642;13.758;2024-01-30T02:17:09;9.25;;;8.27;;
81894;SDS011;71358;45.642;13.758;2024-01-30T02:19:54;9.10;;;8.30;;
81894;SDS011;71358;45.642;13.758;2024-01-30T02:22:39;8.70;;;7.90;;
81894;SDS011;71358;45.642;13.758;2024-01-30T02:25:32;8.57;;;7.68;;
81894;SDS011;71358;45.642;13.758;2024-01-30T02:28:22;9.07;;;8.13;;
81894;SDS011;71358;45.642;13.758;2024-01-30T02:31:07;9.02;;;8.13;;
81894;SDS011;71358;45.642;13.758;2024-01-30T02:33:51;8.55;;;7.68;;
81894;SDS011;71358;45.642;13.758;2024-01-30T02:36:36;8.02;;;7.32;;
81894;SDS011;71358;45.642;13.758;2024-01-30T02:39:21;9.70;;;8.48;;
81894;SDS011;71358;45.642;13.758;2024-01-30T02:42:05;9.20;;;8.38;;
81894;SDS011;71358;45.642;13.758;2024-01-30T02:44:50;9.13;;;8.25;;
81894;SDS011;71358;45.642;13.758;2024-01-30T02:47:34;7.93;;;7.00;;
81894;SDS011;71358;45.642;13.758;2024-01-30T02:50:19;9.05;;;8.30;;
81894;SDS011;71358;45.642;13.758;2024-01-30T02:53:03;9.43;;;8.43;;
81894;SDS011;71358;45.642;13.758;2024-01-30T02:55:48;9.85;;;8.88;;
81894;SDS011;71358;45.642;13.758;2024-01-30T02:58:32;8.95;;;8.02;;
81894;SDS011;71358;45.642;13.758;2024-01-30T03:01:17;9.18;;;8.32;;
81894;SDS011;71358;45.642;13.758;2024-01-30T03:04:02;8.77;;;8.00;;
81894;SDS011;71358;45.642;13.758;2024-01-30T03:06:46;8.77;;;7.97;;
81894;SDS011;71358;45.642;13.758;2024-01-30T03:09:31;9.10;;;8.23;;
81894;SDS011;71358;45.642;13.758;2024-01-30T03:12:16;8.30;;;7.50;;
81894;SDS011;71358;45.642;13.758;2024-01-30T03:15:00;9.20;;;8.45;;
81894;SDS011;71358;45.642;13.758;2024-01-30T03:17:45;9.40;;;8.60;;
81894;SDS011;71358;45.642;13.758;2024-01-30T03:20:29;9.50;;;8.50;;
81894;SDS011;71358;45.642;13.758;2024-01-30T03:23:14;8.32;;;7.53;;
81894;SDS011;71358;45.642;13.758;2024-01-30T03:25:58;8.32;;;7.63;;
81894;SDS011;71358;45.642;13.758;2024-01-30T03:28:43;8.60;;;7.80;;
81894;SDS011;71358;45.642;13.758;2024-01-30T03:31:28;8.70;;;8.00;;
81894;SDS011;71358;45.642;13.758;2024-01-30T03:34:12;9.23;;;8.40;;
81894;SDS011;71358;45.642;13.758;2024-01-30T03:36:57;8.50;;;7.72;;
81894;SDS011;71358;45.642;13.758;2024-01-30T03:39:41;8.98;;;8.10;;
81894;SDS011;71358;45.642;13.758;2024-01-30T03:42:26;8.25;;;7.45;;
81894;SDS011;71358;45.642;13.758;2024-01-30T03:45:10;8.35;;;7.65;;
81894;SDS011;71358;45.642;13.758;2024-01-30T03:47:55;8.95;;;8.13;;
81894;SDS011;71358;45.642;13.758;2024-01-30T03:50:39;8.27;;;7.50;;
81894;SDS011;71358;45.642;13.758;2024-01-30T03:53:24;9.05;;;8.25;;
81894;SDS011;71358;45.642;13.758;2024-01-30T03:56:09;8.35;;;7.60;;
81894;SDS011;71358;45.642;13.758;2024-01-30T03:58:53;8.00;;;7.30;;
81894;SDS011;71358;45.642;13.758;2024-01-30T04:01:39;8.40;;;7.63;;
81894;SDS011;71358;45.642;13.758;2024-01-30T04:04:24;7.93;;;7.22;;
81894;SDS011;71358;45.642;13.758;2024-01-30T04:07:08;7.95;;;7.18;;
81894;SDS011;71358;45.642;13.758;2024-01-30T04:09:53;8.40;;;7.70;;
81894;SDS011;71358;45.642;13.758;2024-01-30T04:12:37;7.38;;;6.78;;
81894;SDS011;71358;45.642;13.758;2024-01-30T04:15:22;8.18;;;7.38;;
81894;SDS011;71358;45.642;13.758;2024-01-30T04:18:06;8.73;;;7.90;;
81894;SDS011;71358;45.642;13.758;2024-01-30T04:20:51;8.23;;;7.43;;
81894;SDS011;71358;45.642;13.758;2024-01-30T04:23:35;8.07;;;7.32;;
81894;SDS011;71358;45.642;13.758;2024-01-30T04:26:20;7.95;;;7.25;;
81894;SDS011;71358;45.642;13.758;2024-01-30T04:29:04;7.05;;;6.45;;
81894;SDS011;71358;45.642;13.758;2024-01-30T04:31:49;7.65;;;6.90;;
81894;SDS011;71358;45.642;13.758;2024-01-30T04:34:34;7.55;;;6.95;;
81894;SDS011;71358;45.642;13.758;2024-01-30T04:37:19;7.88;;;7.18;;
81894;SDS011;71358;45.642;13.758;2024-01-30T04:40:04;8.07;;;7.38;;
81894;SDS011;71358;45.642;13.758;2024-01-30T04:42:49;7.15;;;6.55;;
81894;SDS011;71358;45.642;13.758;2024-01-30T04:45:34;8.82;;;8.02;;
81894;SDS011;71358;45.642;13.758;2024-01-30T04:48:18;7.70;;;6.93;;
81894;SDS011;71358;45.642;13.758;2024-01-30T04:51:03;7.47;;;6.82;;
81894;SDS011;71358;45.642;13.758;2024-01-30T04:53:48;7.85;;;7.07;;
81894;SDS011;71358;45.642;13.758;2024-01-30T04:56:32;8.40;;;7.57;;
81894;SDS011;71358;45.642;13.758;2024-01-30T04:59:17;8.43;;;7.63;;
81894;SDS011;71358;45.642;13.758;2024-01-30T05:02:02;8.05;;;7.35;;
81894;SDS011;71358;45.642;13.758;2024-01-30T05:04:47;7.68;;;7.00;;
81894;SDS011;71358;45.642;13.758;2024-01-30T05:07:31;8.00;;;7.30;;
81894;SDS011;71358;45.642;13.758;2024-01-30T05:10:16;7.47;;;6.78;;
81894;SDS011;71358;45.642;13.758;2024-01-30T05:13:00;8.10;;;7.45;;
81894;SDS011;71358;45.642;13.758;2024-01-30T05:15:44;7.95;;;7.35;;
81894;SDS011;71358;45.642;13.758;2024-01-30T05:18:29;8.15;;;7.45;;
81894;SDS011;71358;45.642;13.758;2024-01-30T05:21:14;7.82;;;7.07;;
81894;SDS011;71358;45.642;13.758;2024-01-30T05:23:58;7.60;;;6.90;;
81894;SDS011;71358;45.642;13.758;2024-01-30T05:26:43;7.07;;;6.47;;
81894;SDS011;71358;45.642;13.758;2024-01-30T05:29:27;7.60;;;6.90;;
81894;SDS011;71358;45.642;13.758;2024-01-30T05:32:12;7.97;;;6.97;;
81894;SDS011;71358;45.642;13.758;2024-01-30T05:34:57;7.63;;;6.95;;
81894;SDS011;71358;45.642;13.758;2024-01-30T05:37:41;7.65;;;7.05;;
81894;SDS011;71358;45.642;13.758;2024-01-30T05:40:26;7.50;;;6.80;;
81894;SDS011;71358;45.642;13.758;2024-01-30T05:43:11;7.03;;;6.50;;
81894;SDS011;71358;45.642;13.758;2024-01-30T05:45:56;7.25;;;6.72;;
81894;SDS011;71358;45.642;13.758;2024-01-30T05:48:40;7.75;;;7.05;;
81894;SDS011;71358;45.642;13.758;2024-01-30T05:51:25;6.80;;;6.20;;
81894;SDS011;71358;45.642;13.758;2024-01-30T05:54:09;7.95;;;7.25;;
81894;SDS011;71358;45.642;13.758;2024-01-30T05:56:54;8.20;;;7.50;;
81894;SDS011;71358;45.642;13.758;2024-01-30T05:59:39;7.82;;;7.13;;
81894;SDS011;71358;45.642;13.758;2024-01-30T06:02:23;7.70;;;6.97;;
81894;SDS011;71358;45.642;13.758;2024-01-30T06:05:08;7.90;;;7.20;;
81894;SDS011;71358;45.642;13.758;2024-01-30T06:07:52;7.53;;;6.82;;
81894;SDS011;71358;45.642;13.758;2024-01-30T06:10:37;8.30;;;7.50;;
81894;SDS011;71358;45.642;13.758;2024-01-30T06:13:21;8.30;;;7.55;;
81894;SDS011;71358;45.642;13.758;2024-01-30T06:16:08;7.45;;;6.75;;
81894;SDS011;71358;45.642;13.758;2024-01-30T06:18:54;7.38;;;6.68;;
81894;SDS011;71358;45.642;13.758;2024-01-30T06:21:39;7.47;;;6.82;;
81894;SDS011;71358;45.642;13.758;2024-01-30T06:24:23;7.75;;;6.90;;
81894;SDS011;71358;45.642;13.758;2024-01-30T06:27:08;6.80;;;6.20;;
81894;SDS011;71358;45.642;13.758;2024-01-30T06:29:53;7.55;;;6.85;;
81894;SDS011;71358;45.642;13.758;2024-01-30T06:32:38;6.88;;;6.38;;
81894;SDS011;71358;45.642;13.758;2024-01-30T06:35:22;7.95;;;7.25;;
81894;SDS011;71358;45.642;13.758;2024-01-30T06:38:07;6.38;;;5.88;;
81894;SDS011;71358;45.642;13.758;2024-01-30T06:40:53;7.88;;;6.93;;
81894;SDS011;71358;45.642;13.758;2024-01-30T06:43:37;6.35;;;5.75;;
81894;SDS011;71358;45.642;13.758;2024-01-30T06:46:23;6.93;;;6.35;;
81894;SDS011;71358;45.642;13.758;2024-01-30T06:49:08;7.78;;;6.40;;
81894;SDS011;71358;45.642;13.758;2024-01-30T06:51:52;7.43;;;6.72;;
81894;SDS011;71358;45.642;13.758;2024-01-30T06:54:37;7.00;;;6.40;;
81894;SDS011;71358;45.642;13.758;2024-01-30T06:57:21;7.18;;;6.47;;
81894;SDS011;71358;45.642;13.758;2024-01-30T07:00:06;7.38;;;6.78;;
81894;SDS011;71358;45.642;13.758;2024-01-30T07:02:51;7.05;;;6.40;;
81894;SDS011;71358;45.642;13.758;2024-01-30T07:05:36;7.75;;;7.15;;
81894;SDS011;71358;45.642;13.758;2024-01-30T07:08:20;7.20;;;6.60;;
81894;SDS011;71358;45.642;13.758;2024-01-30T07:11:06;7.20;;;6.60;;
81894;SDS011;71358;45.642;13.758;2024-01-30T07:13:51;7.00;;;6.40;;
81894;SDS011;71358;45.642;13.758;2024-01-30T07:16:35;6.80;;;6.28;;
81894;SDS011;71358;45.642;13.758;2024-01-30T07:19:20;7.57;;;6.88;;
81894;SDS011;71358;45.642;13.758;2024-01-30T07:22:04;7.60;;;6.90;;
81894;SDS011;71358;45.642;13.758;2024-01-30T07:24:49;7.05;;;6.38;;
81894;SDS011;71358;45.642;13.758;2024-01-30T07:27:35;6.95;;;6.35;;
81894;SDS011;71358;45.642;13.758;2024-01-30T07:30:20;6.43;;;5.82;;
81894;SDS011;71358;45.642;13.758;2024-01-30T07:33:05;7.22;;;6.45;;
81894;SDS011;71358;45.642;13.758;2024-01-30T07:35:49;6.93;;;6.30;;
81894;SDS011;71358;45.642;13.758;2024-01-30T07:38:35;7.05;;;6.43;;
81894;SDS011;71358;45.642;13.758;2024-01-30T07:41:20;6.25;;;5.75;;
81894;SDS011;71358;45.642;13.758;2024-01-30T07:44:04;7.22;;;6.53;;
81894;SDS011;71358;45.642;13.758;2024-01-30T07:46:49;7.50;;;6.80;;
81894;SDS011;71358;45.642;13.758;2024-01-30T07:49:34;7.35;;;6.65;;
81894;SDS011;71358;45.642;13.758;2024-01-30T07:52:18;7.63;;;6.82;;
81894;SDS011;71358;45.642;13.758;2024-01-30T07:55:03;7.00;;;6.38;;
81894;SDS011;71358;45.642;13.758;2024-01-30T07:57:47;6.78;;;6.07;;
81894;SDS011;71358;45.642;13.758;2024-01-30T08:00:32;7.05;;;5.97;;
81894;SDS011;71358;45.642;13.758;2024-01-30T08:03:16;7.75;;;7.05;;
81894;SDS011;71358;45.642;13.758;2024-01-30T08:06:01;7.43;;;6.72;;
81894;SDS011;71358;45.642;13.758;2024-01-30T08:08:47;6.88;;;6.13;;
81894;SDS011;71358;45.642;13.758;2024-01-30T08:11:31;7.93;;;6.97;;
81894;SDS011;71358;45.642;13.758;2024-01-30T08:14:16;7.45;;;6.75;;
81894;SDS011;71358;45.642;13.758;2024-01-30T08:17:00;7.05;;;6.50;;
81894;SDS011;71358;45.642;13.758;2024-01-30T08:19:45;7.40;;;6.70;;
81894;SDS011;71358;45.642;13.758;2024-01-30T08:22:30;6.82;;;6.20;;
81894;SDS011;71358;45.642;13.758;2024-01-30T08:25:14;6.80;;;6.20;;
81894;SDS011;71358;45.642;13.758;2024-01-30T08:27:59;6.70;;;6.10;;
81894;SDS011;71358;45.642;13.758;2024-01-30T08:30:43;6.88;;;6.18;;
81894;SDS011;71358;45.642;13.758;2024-01-30T08:33:28;8.48;;;6.38;;
81894;SDS011;71358;45.642;13.758;2024-01-30T08:36:13;10.80;;;6.70;;
81894;SDS011;71358;45.642;13.758;2024-01-30T08:38:57;8.55;;;7.07;;
81894;SDS011;71358;45.642;13.758;2024-01-30T08:41:42;7.63;;;6.88;;
81894;SDS011;71358;45.642;13.758;2024-01-30T08:44:27;8.32;;;7.13;;
81894;SDS011;71358;45.642;13.758;2024-01-30T08:47:11;7.85;;;6.55;;
81894;SDS011;71358;45.642;13.758;2024-01-30T08:49:56;10.20;;;7.47;;
81894;SDS011;71358;45.642;13.758;2024-01-30T08:52:40;8.52;;;7.63;;
81894;SDS011;71358;45.642;13.758;2024-01-30T08:55:25;8.00;;;7.20;;
81894;SDS011;71358;45.642;13.758;2024-01-30T08:58:09;7.75;;;6.88;;
81894;SDS011;71358;45.642;13.758;2024-01-30T09:00:54;7.47;;;6.82;;
81894;SDS011;71358;45.642;13.758;2024-01-30T09:03:39;8.40;;;7.43;;
81894;SDS011;71358;45.642;13.758;2024-01-30T09:06:24;8.60;;;7.88;;
81894;SDS011;71358;45.642;13.758;2024-01-30T09:09:11;7.95;;;7.20;;
81894;SDS011;71358;45.642;13.758;2024-01-30T09:11:56;7.85;;;7.05;;
81894;SDS011;71358;45.642;13.758;2024-01-30T09:14:45;8.88;;;7.97;;
81894;SDS011;71358;45.642;13.758;2024-01-30T09:17:30;8.35;;;7.55;;
81894;SDS011;71358;45.642;13.758;2024-01-30T09:20:14;8.68;;;7.90;;
81894;SDS011;71358;45.642;13.758;2024-01-30T09:22:59;8.85;;;7.95;;
81894;SDS011;71358;45.642;13.758;2024-01-30T09:25:43;9.68;;;8.77;;
81894;SDS011;71358;45.642;13.758;2024-01-30T09:28:28;8.95;;;7.60;;
81894;SDS011;71358;45.642;13.758;2024-01-30T09:31:12;8.70;;;7.93;;
81894;SDS011;71358;45.642;13.758;2024-01-30T09:33:57;9.27;;;8.07;;
81894;SDS011;71358;45.642;13.758;2024-01-30T09:36:42;9.73;;;7.85;;
81894;SDS011;71358;45.642;13.758;2024-01-30T09:39:26;9.15;;;8.25;;
81894;SDS011;71358;45.642;13.758;2024-01-30T09:45:24;9.32;;;7.68;;
81894;SDS011;71358;45.642;13.758;2024-01-30T09:48:10;8.02;;;7.28;;
81894;SDS011;71358;45.642;13.758;2024-01-30T09:50:54;8.43;;;7.60;;
81894;SDS011;71358;45.642;13.758;2024-01-30T09:53:42;8.43;;;7.53;;
81894;SDS011;71358;45.642;13.758;2024-01-30T09:56:27;12.38;;;8.13;;
81894;SDS011;71358;45.642;13.758;2024-01-30T09:59:12;11.07;;;7.75;;
81894;SDS011;71358;45.642;13.758;2024-01-30T10:01:57;10.70;;;7.63;;
81894;SDS011;71358;45.642;13.758;2024-01-30T10:04:42;10.35;;;7.68;;
81894;SDS011;71358;45.642;13.758;2024-01-30T10:07:26;9.07;;;7.65;;
81894;SDS011;71358;45.642;13.758;2024-01-30T10:10:11;8.68;;;7.13;;
81894;SDS011;71358;45.642;13.758;2024-01-30T10:12:56;8.70;;;7.15;;
81894;SDS011;71358;45.642;13.758;2024-01-30T10:15:40;9.82;;;8.25;;
81894;SDS011;71358;45.642;13.758;2024-01-30T10:18:25;8.65;;;7.10;;
81894;SDS011;71358;45.642;13.758;2024-01-30T10:21:11;8.18;;;7.00;;
81894;SDS011;71358;45.642;13.758;2024-01-30T10:23:56;10.05;;;7.72;;
81894;SDS011;71358;45.642;13.758;2024-01-30T10:26:43;8.93;;;7.20;;
81894;SDS011;71358;45.642;13.758;2024-01-30T10:29:28;8.55;;;7.05;;
81894;SDS011;71358;45.642;13.758;2024-01-30T10:32:12;8.68;;;7.10;;
81894;SDS011;71358;45.642;13.758;2024-01-30T10:34:58;7.40;;;6.70;;
81894;SDS011;71358;45.642;13.758;2024-01-30T10:37:43;8.27;;;7.20;;
81894;SDS011;71358;45.642;13.758;2024-01-30T10:40:30;7.72;;;6.93;;
81894;SDS011;71358;45.642;13.758;2024-01-30T10:43:17;6.65;;;6.05;;
81894;SDS011;71358;45.642;13.758;2024-01-30T10:46:18;7.93;;;7.22;;
81894;SDS011;71358;45.642;13.758;2024-01-30T10:49:03;8.23;;;7.03;;
81894;SDS011;71358;45.642;13.758;2024-01-30T10:51:48;8.32;;;7.45;;
81894;SDS011;71358;45.642;13.758;2024-01-30T10:54:33;7.32;;;6.65;;
81894;SDS011;71358;45.642;13.758;2024-01-30T10:57:20;8.55;;;7.25;;
81894;SDS011;71358;45.642;13.758;2024-01-30T11:00:11;7.28;;;6.50;;
81894;SDS011;71358;45.642;13.758;2024-01-30T11:02:59;7.43;;;6.75;;
81894;SDS011;71358;45.642;13.758;2024-01-30T11:05:48;7.82;;;6.55;;
81894;SDS011;71358;45.642;13.758;2024-01-30T11:08:34;6.55;;;5.90;;
81894;SDS011;71358;45.642;13.758;2024-01-30T11:11:18;6.93;;;6.22;;
81894;SDS011;71358;45.642;13.758;2024-01-30T11:14:04;6.65;;;6.07;;
81894;SDS011;71358;45.642;13.758;2024-01-30T11:16:49;7.53;;;6.82;;
81894;SDS011;71358;45.642;13.758;2024-01-30T11:19:33;7.75;;;6.20;;
81894;SDS011;71358;45.642;13.758;2024-01-30T11:22:22;8.32;;;6.95;;
81894;SDS011;71358;45.642;13.758;2024-01-30T11:25:10;8.45;;;6.75;;
81894;SDS011;71358;45.642;13.758;2024-01-30T11:27:55;7.65;;;6.57;;
81894;SDS011;71358;45.642;13.758;2024-01-30T11:30:40;7.63;;;7.03;;
81894;SDS011;71358;45.642;13.758;2024-01-30T11:33:29;6.97;;;6.28;;
81894;SDS011;71358;45.642;13.758;2024-01-30T11:36:14;8.52;;;6.32;;
81894;SDS011;71358;45.642;13.758;2024-01-30T11:38:59;6.82;;;6.22;;
81894;SDS011;71358;45.642;13.758;2024-01-30T11:41:45;7.75;;;6.55;;
81894;SDS011;71358;45.642;13.758;2024-01-30T11:44:30;7.35;;;6.68;;
81894;SDS011;71358;45.642;13.758;2024-01-30T11:47:14;6.70;;;5.82;;
81894;SDS011;71358;45.642;13.758;2024-01-30T11:50:00;6.45;;;5.78;;
81894;SDS011;71358;45.642;13.758;2024-01-30T11:52:44;6.00;;;5.50;;
81894;SDS011;71358;45.642;13.758;2024-01-30T11:55:29;6.57;;;6.07;;
81894;SDS011;71358;45.642;13.758;2024-01-30T11:58:14;6.90;;;6.28;;
81894;SDS011;71358;45.642;13.758;2024-01-30T12:00:58;7.10;;;6.40;;
81894;SDS011;71358;45.642;13.758;2024-01-30T12:03:49;6.97;;;6.35;;
81894;SDS011;71358;45.642;13.758;2024-01-30T12:06:34;8.38;;;6.22;;
81894;SDS011;71358;45.642;13.758;2024-01-30T12:09:18;6.85;;;6.10;;
81894;SDS011;71358;45.642;13.758;2024-01-30T12:12:03;7.90;;;5.78;;
81894;SDS011;71358;45.642;13.758;2024-01-30T12:14:49;6.75;;;6.15;;
81894;SDS011;71358;45.642;13.758;2024-01-30T12:17:34;6.88;;;6.28;;
81894;SDS011;71358;45.642;13.758;2024-01-30T12:20:19;6.93;;;6.20;;
81894;SDS011;71358;45.642;13.758;2024-01-30T12:23:05;7.32;;;6.30;;
81894;SDS011;71358;45.642;13.758;2024-01-30T12:25:49;6.72;;;6.15;;
81894;SDS011;71358;45.642;13.758;2024-01-30T12:28:34;7.03;;;6.22;;
81894;SDS011;71358;45.642;13.758;2024-01-30T12:31:24;6.45;;;5.85;;
81894;SDS011;71358;45.642;13.758;2024-01-30T12:34:15;7.55;;;6.80;;
81894;SDS011;71358;45.642;13.758;2024-01-30T12:37:01;6.97;;;6.38;;
81894;SDS011;71358;45.642;13.758;2024-01-30T12:39:45;6.60;;;5.38;;
81894;SDS011;71358;45.642;13.758;2024-01-30T12:42:30;6.80;;;6.20;;
81894;SDS011;71358;45.642;13.758;2024-01-30T12:45:15;7.32;;;6.72;;
81894;SDS011;71358;45.642;13.758;2024-01-30T12:47:59;7.63;;;6.88;;
81894;SDS011;71358;45.642;13.758;2024-01-30T12:50:44;6.50;;;5.88;;
81894;SDS011;71358;45.642;13.758;2024-01-30T12:53:29;7.80;;;6.35;;
81894;SDS011;71358;45.642;13.758;2024-01-30T12:55:59;6.68;;;6.07;;
81894;SDS011;71358;45.642;13.758;2024-01-30T12:58:44;6.75;;;6.15;;
81894;SDS011;71358;45.642;13.758;2024-01-30T13:01:28;7.10;;;6.40;;
81894;SDS011;71358;45.642;13.758;2024-01-30T13:04:12;7.63;;;6.90;;
81894;SDS011;71358;45.642;13.758;2024-01-30T13:06:59;6.95;;;6.22;;
81894;SDS011;71358;45.642;13.758;2024-01-30T13:09:44;7.32;;;6.63;;
81894;SDS011;71358;45.642;13.758;2024-01-30T13:12:29;7.28;;;6.68;;
81894;SDS011;71358;45.642;13.758;2024-01-30T13:15:16;7.00;;;6.40;;
81894;SDS011;71358;45.642;13.758;2024-01-30T13:18:00;7.80;;;7.10;;
81894;SDS011;71358;45.642;13.758;2024-01-30T13:20:46;7.60;;;6.70;;
81894;SDS011;71358;45.642;13.758;2024-01-30T13:23:30;7.35;;;6.65;;
81894;SDS011;71358;45.642;13.758;2024-01-30T13:26:15;7.53;;;6.82;;
81894;SDS011;71358;45.642;13.758;2024-01-30T13:29:00;7.10;;;6.40;;
81894;SDS011;71358;45.642;13.758;2024-01-30T13:31:45;8.02;;;6.82;;
81894;SDS011;71358;45.642;13.758;2024-01-30T13:34:30;7.10;;;6.50;;
81894;SDS011;71358;45.642;13.758;2024-01-30T13:37:15;7.22;;;6.50;;
81894;SDS011;71358;45.642;13.758;2024-01-30T13:40:00;8.32;;;7.53;;
81894;SDS011;71358;45.642;13.758;2024-01-30T13:42:44;7.68;;;6.93;;
81894;SDS011;71358;45.642;13.758;2024-01-30T13:45:29;7.80;;;7.18;;
81894;SDS011;71358;45.642;13.758;2024-01-30T13:48:13;8.07;;;7.20;;
81894;SDS011;71358;45.642;13.758;2024-01-30T13:50:58;8.30;;;7.60;;
81894;SDS011;71358;45.642;13.758;2024-01-30T13:53:43;7.97;;;7.28;;
81894;SDS011;71358;45.642;13.758;2024-01-30T13:56:28;8.50;;;7.65;;
81894;SDS011;71358;45.642;13.758;2024-01-30T13:59:13;7.50;;;6.82;;
81894;SDS011;71358;45.642;13.758;2024-01-30T14:01:58;8.32;;;7.47;;
81894;SDS011;71358;45.642;13.758;2024-01-30T14:04:42;7.03;;;6.43;;
81894;SDS011;71358;45.642;13.758;2024-01-30T14:07:27;8.05;;;7.18;;
81894;SDS011;71358;45.642;13.758;2024-01-30T14:10:11;7.88;;;7.20;;
81894;SDS011;71358;45.642;13.758;2024-01-30T14:12:56;8.75;;;7.82;;
81894;SDS011;71358;45.642;13.758;2024-01-30T14:15:41;8.88;;;8.07;;
81894;SDS011;71358;45.642;13.758;2024-01-30T14:18:25;10.88;;;9.70;;
81894;SDS011;71358;45.642;13.758;2024-01-30T14:21:10;10.25;;;9.25;;
81894;SDS011;71358;45.642;13.758;2024-01-30T14:23:54;10.65;;;9.52;;
81894;SDS011;71358;45.642;13.758;2024-01-30T14:26:39;10.80;;;9.80;;
81894;SDS011;71358;45.642;13.758;2024-01-30T14:29:23;12.25;;;11.20;;
81894;SDS011;71358;45.642;13.758;2024-01-30T14:32:08;12.23;;;10.95;;
81894;SDS011;71358;45.642;13.758;2024-01-30T14:34:52;13.95;;;11.85;;
81894;SDS011;71358;45.642;13.758;2024-01-30T14:37:37;11.38;;;10.27;;
81894;SDS011;71358;45.642;13.758;2024-01-30T14:40:21;11.13;;;9.82;;
81894;SDS011;71358;45.642;13.758;2024-01-30T14:43:06;10.50;;;9.35;;
81894;SDS011;71358;45.642;13.758;2024-01-30T14:45:51;10.13;;;9.23;;
81894;SDS011;71358;45.642;13.758;2024-01-30T14:48:36;10.05;;;9.15;;
81894;SDS011;71358;45.642;13.758;2024-01-30T14:51:21;10.65;;;9.48;;
81894;SDS011;71358;45.642;13.758;2024-01-30T14:54:05;9.63;;;8.63;;
81894;SDS011;71358;45.642;13.758;2024-01-30T14:56:50;11.10;;;10.10;;
81894;SDS011;71358;45.642;13.758;2024-01-30T14:59:34;10.38;;;9.48;;
81894;SDS011;71358;45.642;13.758;2024-01-30T15:02:19;10.30;;;9.25;;
81894;SDS011;71358;45.642;13.758;2024-01-30T15:05:03;11.77;;;9.85;;
81894;SDS011;71358;45.642;13.758;2024-01-30T15:07:49;11.20;;;8.60;;
81894;SDS011;71358;45.642;13.758;2024-01-30T15:10:33;10.05;;;9.15;;
81894;SDS011;71358;45.642;13.758;2024-01-30T15:13:18;10.48;;;9.50;;
81894;SDS011;71358;45.642;13.758;2024-01-30T15:16:02;10.27;;;9.27;;
81894;SDS011;71358;45.642;13.758;2024-01-30T15:18:49;10.07;;;9.10;;
81894;SDS011;71358;45.642;13.758;2024-01-30T15:21:33;11.63;;;9.63;;
81894;SDS011;71358;45.642;13.758;2024-01-30T15:24:18;11.82;;;9.48;;
81894;SDS011;71358;45.642;13.758;2024-01-30T15:27:04;10.35;;;9.38;;
81894;SDS011;71358;45.642;13.758;2024-01-30T15:29:48;11.63;;;10.43;;
81894;SDS011;71358;45.642;13.758;2024-01-30T15:32:33;11.35;;;10.18;;
81894;SDS011;71358;45.642;13.758;2024-01-30T15:35:17;9.55;;;8.70;;
81894;SDS011;71358;45.642;13.758;2024-01-30T15:38:02;10.45;;;9.07;;
81894;SDS011;71358;45.642;13.758;2024-01-30T15:40:47;10.15;;;9.30;;
81894;SDS011;71358;45.642;13.758;2024-01-30T15:43:32;10.30;;;9.40;;
81894;SDS011;71358;45.642;13.758;2024-01-30T15:46:16;11.50;;;9.82;;
81894;SDS011;71358;45.642;13.758;2024-01-30T15:49:01;10.18;;;9.27;;
81894;SDS011;71358;45.642;13.758;2024-01-30T15:51:48;10.15;;;9.02;;
81894;SDS011;71358;45.642;13.758;2024-01-30T15:54:32;10.23;;;9.32;;
81894;SDS011;71358;45.642;13.758;2024-01-30T15:57:17;10.93;;;9.88;;
81894;SDS011;71358;45.642;13.758;2024-01-30T16:00:01;10.35;;;9.35;;
81894;SDS011;71358;45.642;13.758;2024-01-30T16:02:55;9.90;;;8.90;;
81894;SDS011;71358;45.642;13.758;2024-01-30T16:05:41;9.98;;;9.18;;
81894;SDS011;71358;45.642;13.758;2024-01-30T16:08:26;9.43;;;8.63;;
81894;SDS011;71358;45.642;13.758;2024-01-30T16:11:11;10.57;;;9.57;;
81894;SDS011;71358;45.642;13.758;2024-01-30T16:13:55;9.55;;;8.45;;
81894;SDS011;71358;45.642;13.758;2024-01-30T16:16:40;9.90;;;9.00;;
81894;SDS011;71358;45.642;13.758;2024-01-30T16:19:24;10.70;;;9.07;;
81894;SDS011;71358;45.642;13.758;2024-01-30T16:22:09;9.70;;;8.75;;
81894;SDS011;71358;45.642;13.758;2024-01-30T16:24:53;9.68;;;8.70;;
81894;SDS011;71358;45.642;13.758;2024-01-30T16:27:38;9.77;;;8.80;;
81894;SDS011;71358;45.642;13.758;2024-01-30T16:30:22;8.65;;;7.90;;
81894;SDS011;71358;45.642;13.758;2024-01-30T16:33:07;9.25;;;8.30;;
81894;SDS011;71358;45.642;13.758;2024-01-30T16:35:51;9.68;;;8.07;;
81894;SDS011;71358;45.642;13.758;2024-01-30T16:38:36;10.23;;;9.10;;
81894;SDS011;71358;45.642;13.758;2024-01-30T16:41:21;9.88;;;8.57;;
81894;SDS011;71358;45.642;13.758;2024-01-30T16:44:05;9.38;;;8.38;;
81894;SDS011;71358;45.642;13.758;2024-01-30T16:46:50;9.32;;;8.57;;
81894;SDS011;71358;45.642;13.758;2024-01-30T16:49:35;8.63;;;7.93;;
81894;SDS011;71358;45.642;13.758;2024-01-30T16:52:19;9.05;;;8.15;;